sensor_id;sensor_type;location;lat;lon;timestamp;temperature;humidity
820;DHT22;392;48.838;2.322;2023-02-11T00:00:23;8.50;57.20
820;DHT22;392;48.838;2.322;2023-02-11T00:02:50;8.50;57.10
820;DHT22;392;48.838;2.322;2023-02-11T00:05:18;8.50;57.00
820;DHT22;392;48.838;2.322;2023-02-11T00:07:46;8.60;56.90
820;DHT22;392;48.838;2.322;2023-02-11T00:10:14;8.60;56.70
820;DHT22;392;48.838;2.322;2023-02-11T00:12:41;8.60;57.20
820;DHT22;392;48.838;2.322;2023-02-11T00:15:09;8.50;56.10
820;DHT22;392;48.838;2.322;2023-02-11T00:17:36;8.40;56.00
820;DHT22;392;48.838;2.322;2023-02-11T00:20:05;8.40;56.20
820;DHT22;392;48.838;2.322;2023-02-11T00:22:32;8.30;56.50
820;DHT22;392;48.838;2.322;2023-02-11T00:25:01;8.20;57.20
820;DHT22;392;48.838;2.322;2023-02-11T00:27:28;8.20;57.40
820;DHT22;392;48.838;2.322;2023-02-11T00:29:56;8.20;57.30
820;DHT22;392;48.838;2.322;2023-02-11T00:32:25;8.10;57.70
820;DHT22;392;48.838;2.322;2023-02-11T00:34:52;8.10;57.70
820;DHT22;392;48.838;2.322;2023-02-11T00:37:20;8.10;57.70
820;DHT22;392;48.838;2.322;2023-02-11T00:39:47;8.10;58.00
820;DHT22;392;48.838;2.322;2023-02-11T00:42:17;8.20;58.30
820;DHT22;392;48.838;2.322;2023-02-11T00:44:44;8.20;57.90
820;DHT22;392;48.838;2.322;2023-02-11T00:47:11;8.30;57.80
820;DHT22;392;48.838;2.322;2023-02-11T00:49:39;8.30;57.70
820;DHT22;392;48.838;2.322;2023-02-11T00:52:06;8.20;57.90
820;DHT22;392;48.838;2.322;2023-02-11T00:54:33;8.20;57.40
820;DHT22;392;48.838;2.322;2023-02-11T00:57:02;8.20;57.80
820;DHT22;392;48.838;2.322;2023-02-11T00:59:31;8.10;57.70
820;DHT22;392;48.838;2.322;2023-02-11T01:02:00;8.20;57.80
820;DHT22;392;48.838;2.322;2023-02-11T01:04:27;8.20;57.80
820;DHT22;392;48.838;2.322;2023-02-11T01:06:56;8.20;57.80
820;DHT22;392;48.838;2.322;2023-02-11T01:09:24;8.20;57.60
820;DHT22;392;48.838;2.322;2023-02-11T01:11:52;8.20;57.40
820;DHT22;392;48.838;2.322;2023-02-11T01:14:19;8.20;57.40
820;DHT22;392;48.838;2.322;2023-02-11T01:16:50;8.20;57.40
820;DHT22;392;48.838;2.322;2023-02-11T01:19:19;8.10;57.30
820;DHT22;392;48.838;2.322;2023-02-11T01:21:46;8.10;57.20
820;DHT22;392;48.838;2.322;2023-02-11T01:24:13;8.10;57.70
820;DHT22;392;48.838;2.322;2023-02-11T01:26:43;8.00;57.60
820;DHT22;392;48.838;2.322;2023-02-11T01:29:10;8.00;57.60
820;DHT22;392;48.838;2.322;2023-02-11T01:31:38;8.00;57.90
820;DHT22;392;48.838;2.322;2023-02-11T01:34:06;8.00;58.10
820;DHT22;392;48.838;2.322;2023-02-11T01:36:36;8.00;58.30
820;DHT22;392;48.838;2.322;2023-02-11T01:39:03;8.00;58.50
820;DHT22;392;48.838;2.322;2023-02-11T01:41:31;8.00;58.00
820;DHT22;392;48.838;2.322;2023-02-11T01:44:21;8.00;58.30
820;DHT22;392;48.838;2.322;2023-02-11T01:46:50;8.00;57.60
820;DHT22;392;48.838;2.322;2023-02-11T01:49:22;7.90;57.60
820;DHT22;392;48.838;2.322;2023-02-11T01:51:55;7.90;57.50
820;DHT22;392;48.838;2.322;2023-02-11T01:54:27;7.90;57.80
820;DHT22;392;48.838;2.322;2023-02-11T01:57:15;7.80;57.90
820;DHT22;392;48.838;2.322;2023-02-11T02:00:03;7.80;57.90
820;DHT22;392;48.838;2.322;2023-02-11T02:02:43;7.70;57.30
820;DHT22;392;48.838;2.322;2023-02-11T02:05:21;7.60;58.00
820;DHT22;392;48.838;2.322;2023-02-11T02:08:02;7.60;57.30
820;DHT22;392;48.838;2.322;2023-02-11T02:10:34;7.50;57.20
820;DHT22;392;48.838;2.322;2023-02-11T02:13:02;7.40;57.60
820;DHT22;392;48.838;2.322;2023-02-11T02:15:32;7.40;57.70
820;DHT22;392;48.838;2.322;2023-02-11T02:18:30;7.30;57.70
820;DHT22;392;48.838;2.322;2023-02-11T02:21:35;7.30;58.40
820;DHT22;392;48.838;2.322;2023-02-11T02:24:41;7.20;59.40
820;DHT22;392;48.838;2.322;2023-02-11T02:27:35;7.20;59.60
820;DHT22;392;48.838;2.322;2023-02-11T02:30:36;7.20;60.00
820;DHT22;392;48.838;2.322;2023-02-11T02:33:24;7.20;60.30
820;DHT22;392;48.838;2.322;2023-02-11T02:36:06;7.20;59.70
820;DHT22;392;48.838;2.322;2023-02-11T02:38:45;7.20;59.20
820;DHT22;392;48.838;2.322;2023-02-11T02:41:16;7.10;59.40
820;DHT22;392;48.838;2.322;2023-02-11T02:43:48;7.10;59.70
820;DHT22;392;48.838;2.322;2023-02-11T02:46:18;7.20;59.90
820;DHT22;392;48.838;2.322;2023-02-11T02:48:51;7.10;60.00
820;DHT22;392;48.838;2.322;2023-02-11T02:57:44;7.10;60.70
820;DHT22;392;48.838;2.322;2023-02-11T03:00:25;7.10;60.90
820;DHT22;392;48.838;2.322;2023-02-11T03:03:08;7.10;60.90
820;DHT22;392;48.838;2.322;2023-02-11T03:05:48;7.10;61.00
820;DHT22;392;48.838;2.322;2023-02-11T03:08:24;7.10;61.10
820;DHT22;392;48.838;2.322;2023-02-11T03:10:56;7.10;61.30
820;DHT22;392;48.838;2.322;2023-02-11T03:13:29;7.20;61.50
820;DHT22;392;48.838;2.322;2023-02-11T03:16:07;7.20;61.30
820;DHT22;392;48.838;2.322;2023-02-11T03:18:39;7.20;61.50
820;DHT22;392;48.838;2.322;2023-02-11T03:21:10;7.20;61.60
820;DHT22;392;48.838;2.322;2023-02-11T03:23:41;7.30;62.00
820;DHT22;392;48.838;2.322;2023-02-11T03:26:17;7.30;62.30
820;DHT22;392;48.838;2.322;2023-02-11T03:28:59;7.40;61.50
820;DHT22;392;48.838;2.322;2023-02-11T03:31:33;7.40;61.10
820;DHT22;392;48.838;2.322;2023-02-11T03:34:07;7.40;60.30
820;DHT22;392;48.838;2.322;2023-02-11T03:36:40;7.30;59.70
820;DHT22;392;48.838;2.322;2023-02-11T03:39:15;7.30;59.60
820;DHT22;392;48.838;2.322;2023-02-11T03:41:46;7.20;59.90
820;DHT22;392;48.838;2.322;2023-02-11T03:44:16;7.20;60.70
820;DHT22;392;48.838;2.322;2023-02-11T03:46:46;7.20;60.10
820;DHT22;392;48.838;2.322;2023-02-11T03:49:17;7.20;60.00
820;DHT22;392;48.838;2.322;2023-02-11T03:51:50;7.20;59.90
820;DHT22;392;48.838;2.322;2023-02-11T03:54:22;7.20;60.00
820;DHT22;392;48.838;2.322;2023-02-11T03:56:53;7.20;60.20
820;DHT22;392;48.838;2.322;2023-02-11T03:59:21;7.10;60.30
820;DHT22;392;48.838;2.322;2023-02-11T04:01:48;7.10;60.90
820;DHT22;392;48.838;2.322;2023-02-11T04:04:16;7.10;60.40
820;DHT22;392;48.838;2.322;2023-02-11T04:06:44;7.20;60.40
820;DHT22;392;48.838;2.322;2023-02-11T04:09:12;7.20;60.50
820;DHT22;392;48.838;2.322;2023-02-11T04:11:40;7.20;60.50
820;DHT22;392;48.838;2.322;2023-02-11T04:14:07;7.20;60.50
820;DHT22;392;48.838;2.322;2023-02-11T04:16:34;7.10;60.00
820;DHT22;392;48.838;2.322;2023-02-11T04:19:02;7.10;59.90
820;DHT22;392;48.838;2.322;2023-02-11T04:21:29;7.10;59.90
820;DHT22;392;48.838;2.322;2023-02-11T04:23:57;7.00;60.10
820;DHT22;392;48.838;2.322;2023-02-11T04:26:25;7.00;60.50
820;DHT22;392;48.838;2.322;2023-02-11T04:28:53;7.00;60.80
820;DHT22;392;48.838;2.322;2023-02-11T04:31:20;7.00;61.70
820;DHT22;392;48.838;2.322;2023-02-11T04:33:47;7.00;61.40
820;DHT22;392;48.838;2.322;2023-02-11T04:36:14;7.00;61.40
820;DHT22;392;48.838;2.322;2023-02-11T04:38:42;7.00;61.40
820;DHT22;392;48.838;2.322;2023-02-11T04:41:09;7.10;62.10
820;DHT22;392;48.838;2.322;2023-02-11T04:43:38;7.10;61.20
820;DHT22;392;48.838;2.322;2023-02-11T04:46:05;7.10;61.30
820;DHT22;392;48.838;2.322;2023-02-11T04:48:33;7.10;60.70
820;DHT22;392;48.838;2.322;2023-02-11T04:51:00;7.10;60.20
820;DHT22;392;48.838;2.322;2023-02-11T04:53:28;7.10;59.80
820;DHT22;392;48.838;2.322;2023-02-11T04:55:55;7.10;59.60
820;DHT22;392;48.838;2.322;2023-02-11T04:58:22;7.00;59.50
820;DHT22;392;48.838;2.322;2023-02-11T05:00:51;7.00;60.30
820;DHT22;392;48.838;2.322;2023-02-11T05:03:18;6.90;59.60
820;DHT22;392;48.838;2.322;2023-02-11T05:05:46;7.00;59.90
820;DHT22;392;48.838;2.322;2023-02-11T05:08:13;6.90;60.10
820;DHT22;392;48.838;2.322;2023-02-11T05:10:45;7.00;60.30
820;DHT22;392;48.838;2.322;2023-02-11T05:13:12;7.00;60.60
820;DHT22;392;48.838;2.322;2023-02-11T05:15:40;7.00;60.90
820;DHT22;392;48.838;2.322;2023-02-11T05:18:08;7.10;61.10
820;DHT22;392;48.838;2.322;2023-02-11T05:20:36;7.00;61.00
820;DHT22;392;48.838;2.322;2023-02-11T05:23:04;7.10;60.40
820;DHT22;392;48.838;2.322;2023-02-11T05:25:31;7.00;60.50
820;DHT22;392;48.838;2.322;2023-02-11T05:27:59;6.90;59.40
820;DHT22;392;48.838;2.322;2023-02-11T05:30:26;6.90;59.40
820;DHT22;392;48.838;2.322;2023-02-11T05:32:55;6.80;59.40
820;DHT22;392;48.838;2.322;2023-02-11T05:35:23;6.80;60.30
820;DHT22;392;48.838;2.322;2023-02-11T05:37:51;6.80;61.20
820;DHT22;392;48.838;2.322;2023-02-11T05:40:18;6.90;61.70
820;DHT22;392;48.838;2.322;2023-02-11T05:42:46;6.90;62.00
820;DHT22;392;48.838;2.322;2023-02-11T05:45:13;6.90;61.70
820;DHT22;392;48.838;2.322;2023-02-11T05:47:41;6.90;61.40
820;DHT22;392;48.838;2.322;2023-02-11T05:50:08;6.90;61.40
820;DHT22;392;48.838;2.322;2023-02-11T05:52:37;6.90;61.20
820;DHT22;392;48.838;2.322;2023-02-11T05:55:05;6.90;61.80
820;DHT22;392;48.838;2.322;2023-02-11T05:57:32;6.90;62.10
820;DHT22;392;48.838;2.322;2023-02-11T06:00:00;7.00;62.90
820;DHT22;392;48.838;2.322;2023-02-11T06:02:38;7.00;62.20
820;DHT22;392;48.838;2.322;2023-02-11T06:05:06;7.10;62.00
820;DHT22;392;48.838;2.322;2023-02-11T06:07:34;7.20;61.80
820;DHT22;392;48.838;2.322;2023-02-11T06:10:04;7.20;61.60
820;DHT22;392;48.838;2.322;2023-02-11T06:12:32;7.20;61.20
820;DHT22;392;48.838;2.322;2023-02-11T06:14:59;7.20;60.90
820;DHT22;392;48.838;2.322;2023-02-11T06:17:26;7.20;60.80
820;DHT22;392;48.838;2.322;2023-02-11T06:19:56;7.10;60.60
820;DHT22;392;48.838;2.322;2023-02-11T06:22:23;7.10;60.70
820;DHT22;392;48.838;2.322;2023-02-11T06:24:51;7.10;60.90
820;DHT22;392;48.838;2.322;2023-02-11T06:27:19;7.10;60.90
820;DHT22;392;48.838;2.322;2023-02-11T06:29:47;7.10;60.80
820;DHT22;392;48.838;2.322;2023-02-11T06:32:17;7.10;61.00
820;DHT22;392;48.838;2.322;2023-02-11T06:34:45;7.10;61.20
820;DHT22;392;48.838;2.322;2023-02-11T06:37:12;7.10;61.20
820;DHT22;392;48.838;2.322;2023-02-11T06:39:40;7.20;61.20
820;DHT22;392;48.838;2.322;2023-02-11T06:42:08;7.10;60.60
820;DHT22;392;48.838;2.322;2023-02-11T06:44:37;7.10;60.00
820;DHT22;392;48.838;2.322;2023-02-11T06:47:06;7.00;59.40
820;DHT22;392;48.838;2.322;2023-02-11T06:49:33;6.90;59.90
820;DHT22;392;48.838;2.322;2023-02-11T06:52:00;6.90;60.20
820;DHT22;392;48.838;2.322;2023-02-11T06:54:28;6.90;60.60
820;DHT22;392;48.838;2.322;2023-02-11T06:56:55;6.80;60.60
820;DHT22;392;48.838;2.322;2023-02-11T06:59:22;6.80;60.90
820;DHT22;392;48.838;2.322;2023-02-11T07:01:51;6.80;61.60
820;DHT22;392;48.838;2.322;2023-02-11T07:04:19;6.80;62.00
820;DHT22;392;48.838;2.322;2023-02-11T07:06:47;6.90;62.30
820;DHT22;392;48.838;2.322;2023-02-11T07:09:14;6.90;61.80
820;DHT22;392;48.838;2.322;2023-02-11T07:11:41;6.80;60.30
820;DHT22;392;48.838;2.322;2023-02-11T07:14:09;6.60;59.20
820;DHT22;392;48.838;2.322;2023-02-11T07:16:38;6.50;58.60
820;DHT22;392;48.838;2.322;2023-02-11T07:19:06;6.40;58.40
820;DHT22;392;48.838;2.322;2023-02-11T07:21:34;6.40;58.60
820;DHT22;392;48.838;2.322;2023-02-11T07:24:01;6.30;59.00
820;DHT22;392;48.838;2.322;2023-02-11T07:26:32;6.30;61.00
820;DHT22;392;48.838;2.322;2023-02-11T07:29:00;6.40;61.50
820;DHT22;392;48.838;2.322;2023-02-11T07:31:28;6.50;61.50
820;DHT22;392;48.838;2.322;2023-02-11T07:33:59;6.50;61.20
820;DHT22;392;48.838;2.322;2023-02-11T07:36:30;6.50;61.70
820;DHT22;392;48.838;2.322;2023-02-11T07:38:58;6.50;61.40
820;DHT22;392;48.838;2.322;2023-02-11T07:41:26;6.50;61.60
820;DHT22;392;48.838;2.322;2023-02-11T07:43:54;6.60;61.80
820;DHT22;392;48.838;2.322;2023-02-11T07:46:23;6.60;62.10
820;DHT22;392;48.838;2.322;2023-02-11T07:48:51;6.70;62.70
820;DHT22;392;48.838;2.322;2023-02-11T07:51:21;6.90;63.10
820;DHT22;392;48.838;2.322;2023-02-11T07:53:51;7.00;63.10
820;DHT22;392;48.838;2.322;2023-02-11T07:56:20;7.10;62.90
820;DHT22;392;48.838;2.322;2023-02-11T07:58:48;7.10;62.60
820;DHT22;392;48.838;2.322;2023-02-11T08:01:18;7.20;62.50
820;DHT22;392;48.838;2.322;2023-02-11T08:03:47;7.20;62.20
820;DHT22;392;48.838;2.322;2023-02-11T08:06:16;7.30;61.90
820;DHT22;392;48.838;2.322;2023-02-11T08:08:45;7.30;61.60
820;DHT22;392;48.838;2.322;2023-02-11T08:11:16;7.40;62.10
820;DHT22;392;48.838;2.322;2023-02-11T08:13:44;7.40;61.10
820;DHT22;392;48.838;2.322;2023-02-11T08:16:18;7.50;61.10
820;DHT22;392;48.838;2.322;2023-02-11T08:18:46;7.50;60.00
820;DHT22;392;48.838;2.322;2023-02-11T08:21:14;7.50;59.60
820;DHT22;392;48.838;2.322;2023-02-11T08:23:42;7.60;59.30
820;DHT22;392;48.838;2.322;2023-02-11T08:26:12;7.60;58.80
820;DHT22;392;48.838;2.322;2023-02-11T08:28:44;7.70;58.40
820;DHT22;392;48.838;2.322;2023-02-11T08:31:14;7.80;57.90
820;DHT22;392;48.838;2.322;2023-02-11T08:33:43;7.80;57.40
820;DHT22;392;48.838;2.322;2023-02-11T08:36:12;7.80;57.80
820;DHT22;392;48.838;2.322;2023-02-11T08:38:41;7.80;57.10
820;DHT22;392;48.838;2.322;2023-02-11T08:41:09;7.80;56.70
820;DHT22;392;48.838;2.322;2023-02-11T08:43:38;7.80;56.20
820;DHT22;392;48.838;2.322;2023-02-11T08:46:07;7.80;56.40
820;DHT22;392;48.838;2.322;2023-02-11T08:48:35;7.80;56.50
820;DHT22;392;48.838;2.322;2023-02-11T08:51:06;7.90;56.40
820;DHT22;392;48.838;2.322;2023-02-11T08:53:34;7.90;55.90
820;DHT22;392;48.838;2.322;2023-02-11T08:56:02;8.00;55.40
820;DHT22;392;48.838;2.322;2023-02-11T08:58:30;8.10;53.00
820;DHT22;392;48.838;2.322;2023-02-11T09:00:58;8.10;53.00
820;DHT22;392;48.838;2.322;2023-02-11T09:03:28;8.10;51.80
820;DHT22;392;48.838;2.322;2023-02-11T09:05:55;8.20;50.90
820;DHT22;392;48.838;2.322;2023-02-11T09:08:23;8.20;50.60
820;DHT22;392;48.838;2.322;2023-02-11T09:10:50;8.20;50.20
820;DHT22;392;48.838;2.322;2023-02-11T09:13:17;8.20;49.90
820;DHT22;392;48.838;2.322;2023-02-11T09:15:45;8.30;50.20
820;DHT22;392;48.838;2.322;2023-02-11T09:18:14;8.30;50.00
820;DHT22;392;48.838;2.322;2023-02-11T09:20:41;8.40;50.00
820;DHT22;392;48.838;2.322;2023-02-11T09:23:08;8.50;49.30
820;DHT22;392;48.838;2.322;2023-02-11T09:25:38;8.70;49.10
820;DHT22;392;48.838;2.322;2023-02-11T09:28:06;8.80;48.80
820;DHT22;392;48.838;2.322;2023-02-11T09:30:34;8.90;48.30
820;DHT22;392;48.838;2.322;2023-02-11T09:33:02;9.10;47.60
820;DHT22;392;48.838;2.322;2023-02-11T09:35:32;9.30;46.40
820;DHT22;392;48.838;2.322;2023-02-11T09:37:59;9.40;45.00
820;DHT22;392;48.838;2.322;2023-02-11T09:40:27;9.60;44.20
820;DHT22;392;48.838;2.322;2023-02-11T09:43:01;9.70;43.80
820;DHT22;392;48.838;2.322;2023-02-11T09:45:31;9.90;42.80
820;DHT22;392;48.838;2.322;2023-02-11T09:48:01;10.00;40.70
820;DHT22;392;48.838;2.322;2023-02-11T09:50:34;10.00;40.00
820;DHT22;392;48.838;2.322;2023-02-11T09:53:06;10.10;39.80
820;DHT22;392;48.838;2.322;2023-02-11T09:55:40;10.00;39.00
820;DHT22;392;48.838;2.322;2023-02-11T09:58:12;10.00;39.00
820;DHT22;392;48.838;2.322;2023-02-11T10:00:43;10.00;39.00
820;DHT22;392;48.838;2.322;2023-02-11T10:03:37;10.00;39.00
820;DHT22;392;48.838;2.322;2023-02-11T10:06:40;10.00;39.50
820;DHT22;392;48.838;2.322;2023-02-11T10:09:22;10.10;39.70
820;DHT22;392;48.838;2.322;2023-02-11T10:12:09;10.30;39.20
820;DHT22;392;48.838;2.322;2023-02-11T10:15:01;10.50;38.60
820;DHT22;392;48.838;2.322;2023-02-11T10:17:43;10.70;37.90
820;DHT22;392;48.838;2.322;2023-02-11T10:20:24;10.70;36.60
820;DHT22;392;48.838;2.322;2023-02-11T10:22:58;10.80;36.60
820;DHT22;392;48.838;2.322;2023-02-11T10:25:35;10.80;36.90
820;DHT22;392;48.838;2.322;2023-02-11T10:28:11;10.90;36.90
820;DHT22;392;48.838;2.322;2023-02-11T10:30:42;11.10;36.90
820;DHT22;392;48.838;2.322;2023-02-11T10:33:19;11.30;36.20
820;DHT22;392;48.838;2.322;2023-02-11T10:35:50;11.40;35.60
820;DHT22;392;48.838;2.322;2023-02-11T10:38:19;11.50;34.90
820;DHT22;392;48.838;2.322;2023-02-11T10:40:46;11.50;34.40
820;DHT22;392;48.838;2.322;2023-02-11T10:43:16;11.50;34.00
820;DHT22;392;48.838;2.322;2023-02-11T10:45:46;11.50;33.80
820;DHT22;392;48.838;2.322;2023-02-11T10:48:41;11.50;33.70
820;DHT22;392;48.838;2.322;2023-02-11T10:51:18;11.50;34.20
820;DHT22;392;48.838;2.322;2023-02-11T10:53:49;11.60;34.90
820;DHT22;392;48.838;2.322;2023-02-11T10:56:40;11.60;35.30
820;DHT22;392;48.838;2.322;2023-02-11T10:59:16;11.60;35.00
820;DHT22;392;48.838;2.322;2023-02-11T11:01:49;11.50;35.00
820;DHT22;392;48.838;2.322;2023-02-11T11:04:33;11.60;34.90
820;DHT22;392;48.838;2.322;2023-02-11T11:07:13;11.50;35.00
820;DHT22;392;48.838;2.322;2023-02-11T11:09:47;11.50;35.30
820;DHT22;392;48.838;2.322;2023-02-11T11:12:32;11.50;35.50
820;DHT22;392;48.838;2.322;2023-02-11T11:15:15;11.70;35.50
820;DHT22;392;48.838;2.322;2023-02-11T11:17:47;11.90;35.00
820;DHT22;392;48.838;2.322;2023-02-11T11:20:20;12.10;34.10
820;DHT22;392;48.838;2.322;2023-02-11T11:23:06;12.10;33.50
820;DHT22;392;48.838;2.322;2023-02-11T11:25:41;12.20;33.40
820;DHT22;392;48.838;2.322;2023-02-11T11:28:20;12.20;33.40
820;DHT22;392;48.838;2.322;2023-02-11T11:30:51;12.20;33.60
820;DHT22;392;48.838;2.322;2023-02-11T11:33:23;12.30;33.40
820;DHT22;392;48.838;2.322;2023-02-11T11:35:58;12.40;33.00
820;DHT22;392;48.838;2.322;2023-02-11T11:38:29;12.40;32.90
820;DHT22;392;48.838;2.322;2023-02-11T11:41:17;12.50;32.80
820;DHT22;392;48.838;2.322;2023-02-11T11:44:01;12.50;32.70
820;DHT22;392;48.838;2.322;2023-02-11T11:46:33;12.50;32.70
820;DHT22;392;48.838;2.322;2023-02-11T11:49:11;12.50;32.90
820;DHT22;392;48.838;2.322;2023-02-11T11:51:48;12.40;33.00
820;DHT22;392;48.838;2.322;2023-02-11T11:54:23;12.40;33.40
820;DHT22;392;48.838;2.322;2023-02-11T11:56:57;12.30;33.50
820;DHT22;392;48.838;2.322;2023-02-11T11:59:28;12.30;33.80
820;DHT22;392;48.838;2.322;2023-02-11T12:02:31;12.30;34.10
820;DHT22;392;48.838;2.322;2023-02-11T12:05:08;12.20;34.60
820;DHT22;392;48.838;2.322;2023-02-11T12:07:49;12.20;35.20
820;DHT22;392;48.838;2.322;2023-02-11T12:10:34;12.20;35.50
820;DHT22;392;48.838;2.322;2023-02-11T12:13:22;12.20;36.50
820;DHT22;392;48.838;2.322;2023-02-11T12:16:03;12.20;35.70
820;DHT22;392;48.838;2.322;2023-02-11T12:19:02;12.30;36.10
820;DHT22;392;48.838;2.322;2023-02-11T12:21:47;12.30;34.90
820;DHT22;392;48.838;2.322;2023-02-11T12:24:29;12.20;34.80
820;DHT22;392;48.838;2.322;2023-02-11T12:27:09;12.20;35.20
820;DHT22;392;48.838;2.322;2023-02-11T12:29:54;12.20;35.50
820;DHT22;392;48.838;2.322;2023-02-11T12:32:32;12.30;35.30
820;DHT22;392;48.838;2.322;2023-02-11T12:35:15;12.40;34.90
820;DHT22;392;48.838;2.322;2023-02-11T12:41:03;12.60;33.40
820;DHT22;392;48.838;2.322;2023-02-11T12:43:42;12.60;33.70
820;DHT22;392;48.838;2.322;2023-02-11T12:46:33;12.70;33.90
820;DHT22;392;48.838;2.322;2023-02-11T12:49:36;12.70;33.40
820;DHT22;392;48.838;2.322;2023-02-11T12:52:24;12.80;32.70
820;DHT22;392;48.838;2.322;2023-02-11T12:55:01;12.80;32.50
820;DHT22;392;48.838;2.322;2023-02-11T12:57:35;12.80;32.60
820;DHT22;392;48.838;2.322;2023-02-11T13:00:07;12.80;32.70
820;DHT22;392;48.838;2.322;2023-02-11T13:02:46;12.80;32.60
820;DHT22;392;48.838;2.322;2023-02-11T13:05:24;12.90;32.60
820;DHT22;392;48.838;2.322;2023-02-11T13:07:58;12.90;32.70
820;DHT22;392;48.838;2.322;2023-02-11T13:10:33;13.00;32.70
820;DHT22;392;48.838;2.322;2023-02-11T13:13:03;13.10;31.90
820;DHT22;392;48.838;2.322;2023-02-11T13:15:49;13.10;31.70
820;DHT22;392;48.838;2.322;2023-02-11T13:18:41;13.10;31.70
820;DHT22;392;48.838;2.322;2023-02-11T13:21:35;13.10;31.70
820;DHT22;392;48.838;2.322;2023-02-11T13:24:14;13.10;31.70
820;DHT22;392;48.838;2.322;2023-02-11T13:26:51;13.10;31.90
820;DHT22;392;48.838;2.322;2023-02-11T13:29:32;13.30;32.10
820;DHT22;392;48.838;2.322;2023-02-11T13:32:06;13.60;31.10
820;DHT22;392;48.838;2.322;2023-02-11T13:34:56;13.60;30.30
820;DHT22;392;48.838;2.322;2023-02-11T13:37:26;13.60;29.90
820;DHT22;392;48.838;2.322;2023-02-11T13:40:00;13.60;29.70
820;DHT22;392;48.838;2.322;2023-02-11T13:42:32;13.50;29.80
820;DHT22;392;48.838;2.322;2023-02-11T13:45:00;13.50;29.70
820;DHT22;392;48.838;2.322;2023-02-11T13:47:32;13.50;29.60
820;DHT22;392;48.838;2.322;2023-02-11T13:50:05;13.50;29.60
820;DHT22;392;48.838;2.322;2023-02-11T13:52:36;13.40;30.30
820;DHT22;392;48.838;2.322;2023-02-11T13:55:19;13.80;31.30
820;DHT22;392;48.838;2.322;2023-02-11T13:58:15;14.60;29.40
820;DHT22;392;48.838;2.322;2023-02-11T14:00:46;15.10;27.10
820;DHT22;392;48.838;2.322;2023-02-11T14:03:28;15.30;26.30
820;DHT22;392;48.838;2.322;2023-02-11T14:06:30;15.10;26.00
820;DHT22;392;48.838;2.322;2023-02-11T14:09:38;14.80;26.90
820;DHT22;392;48.838;2.322;2023-02-11T14:12:23;14.40;26.90
820;DHT22;392;48.838;2.322;2023-02-11T14:18:37;13.70;28.30
820;DHT22;392;48.838;2.322;2023-02-11T14:21:11;13.40;29.30
820;DHT22;392;48.838;2.322;2023-02-11T14:23:41;13.30;29.70
820;DHT22;392;48.838;2.322;2023-02-11T14:26:26;13.20;29.90
820;DHT22;392;48.838;2.322;2023-02-11T14:29:02;13.10;30.00
820;DHT22;392;48.838;2.322;2023-02-11T14:31:39;13.00;30.20
820;DHT22;392;48.838;2.322;2023-02-11T14:34:27;12.90;30.70
820;DHT22;392;48.838;2.322;2023-02-11T14:37:13;12.80;31.40
820;DHT22;392;48.838;2.322;2023-02-11T14:39:57;12.70;31.50
820;DHT22;392;48.838;2.322;2023-02-11T14:42:31;12.80;32.00
820;DHT22;392;48.838;2.322;2023-02-11T14:45:03;12.90;31.60
820;DHT22;392;48.838;2.322;2023-02-11T14:47:39;12.90;31.50
820;DHT22;392;48.838;2.322;2023-02-11T14:50:14;13.00;31.60
820;DHT22;392;48.838;2.322;2023-02-11T14:52:44;13.00;31.60
820;DHT22;392;48.838;2.322;2023-02-11T14:55:22;12.90;31.50
820;DHT22;392;48.838;2.322;2023-02-11T14:58:12;12.80;31.40
820;DHT22;392;48.838;2.322;2023-02-11T15:00:50;12.70;31.90
820;DHT22;392;48.838;2.322;2023-02-11T15:03:30;12.70;32.20
820;DHT22;392;48.838;2.322;2023-02-11T15:06:02;12.50;32.30
820;DHT22;392;48.838;2.322;2023-02-11T15:08:33;12.40;33.00
820;DHT22;392;48.838;2.322;2023-02-11T15:11:08;12.20;33.60
820;DHT22;392;48.838;2.322;2023-02-11T15:13:37;12.00;34.90
820;DHT22;392;48.838;2.322;2023-02-11T15:16:13;11.90;34.90
820;DHT22;392;48.838;2.322;2023-02-11T15:18:45;11.80;35.60
820;DHT22;392;48.838;2.322;2023-02-11T15:21:20;11.70;35.70
820;DHT22;392;48.838;2.322;2023-02-11T15:23:56;11.70;36.50
820;DHT22;392;48.838;2.322;2023-02-11T15:26:27;11.60;36.90
820;DHT22;392;48.838;2.322;2023-02-11T15:28:55;11.60;37.30
820;DHT22;392;48.838;2.322;2023-02-11T15:31:23;11.70;37.50
820;DHT22;392;48.838;2.322;2023-02-11T15:33:52;11.70;37.40
820;DHT22;392;48.838;2.322;2023-02-11T15:36:23;11.80;38.00
820;DHT22;392;48.838;2.322;2023-02-11T15:39:15;11.80;37.30
820;DHT22;392;48.838;2.322;2023-02-11T15:41:44;11.80;37.40
820;DHT22;392;48.838;2.322;2023-02-11T15:44:29;11.80;37.60
820;DHT22;392;48.838;2.322;2023-02-11T15:46:57;11.70;38.00
820;DHT22;392;48.838;2.322;2023-02-11T15:49:25;11.70;38.20
820;DHT22;392;48.838;2.322;2023-02-11T15:51:55;11.70;38.40
820;DHT22;392;48.838;2.322;2023-02-11T15:54:25;11.70;38.40
820;DHT22;392;48.838;2.322;2023-02-11T15:56:59;11.60;38.50
820;DHT22;392;48.838;2.322;2023-02-11T15:59:30;11.60;38.50
820;DHT22;392;48.838;2.322;2023-02-11T16:02:06;11.60;38.80
820;DHT22;392;48.838;2.322;2023-02-11T16:04:35;11.50;39.10
820;DHT22;392;48.838;2.322;2023-02-11T16:07:02;11.50;39.20
820;DHT22;392;48.838;2.322;2023-02-11T16:09:33;11.50;39.40
820;DHT22;392;48.838;2.322;2023-02-11T16:12:05;11.50;39.70
820;DHT22;392;48.838;2.322;2023-02-11T16:14:49;11.40;40.20
820;DHT22;392;48.838;2.322;2023-02-11T16:17:23;11.40;41.00
820;DHT22;392;48.838;2.322;2023-02-11T16:19:53;11.40;41.00
820;DHT22;392;48.838;2.322;2023-02-11T16:22:23;11.30;41.10
820;DHT22;392;48.838;2.322;2023-02-11T16:24:55;11.30;41.00
820;DHT22;392;48.838;2.322;2023-02-11T16:27:27;11.20;41.30
820;DHT22;392;48.838;2.322;2023-02-11T16:29:58;11.20;41.50
820;DHT22;392;48.838;2.322;2023-02-11T16:32:27;11.20;41.60
820;DHT22;392;48.838;2.322;2023-02-11T16:34:57;11.10;41.70
820;DHT22;392;48.838;2.322;2023-02-11T16:37:26;11.10;41.90
820;DHT22;392;48.838;2.322;2023-02-11T16:39:54;11.10;41.90
820;DHT22;392;48.838;2.322;2023-02-11T16:42:21;11.10;42.90
820;DHT22;392;48.838;2.322;2023-02-11T16:44:50;11.10;42.40
820;DHT22;392;48.838;2.322;2023-02-11T16:47:21;11.20;42.50
820;DHT22;392;48.838;2.322;2023-02-11T16:49:51;11.20;42.70
820;DHT22;392;48.838;2.322;2023-02-11T16:52:20;11.20;42.90
820;DHT22;392;48.838;2.322;2023-02-11T16:54:48;11.10;42.70
820;DHT22;392;48.838;2.322;2023-02-11T16:57:17;11.10;43.00
820;DHT22;392;48.838;2.322;2023-02-11T16:59:46;11.10;43.90
820;DHT22;392;48.838;2.322;2023-02-11T17:02:19;11.10;43.30
820;DHT22;392;48.838;2.322;2023-02-11T17:04:49;11.00;43.70
820;DHT22;392;48.838;2.322;2023-02-11T17:07:16;11.00;44.00
820;DHT22;392;48.838;2.322;2023-02-11T17:09:44;11.00;44.40
820;DHT22;392;48.838;2.322;2023-02-11T17:12:13;10.90;44.70
820;DHT22;392;48.838;2.322;2023-02-11T17:14:41;11.00;45.10
820;DHT22;392;48.838;2.322;2023-02-11T17:17:08;11.00;45.30
820;DHT22;392;48.838;2.322;2023-02-11T17:19:39;11.00;45.40
820;DHT22;392;48.838;2.322;2023-02-11T17:22:06;11.00;45.40
820;DHT22;392;48.838;2.322;2023-02-11T17:24:35;11.10;45.40
820;DHT22;392;48.838;2.322;2023-02-11T17:27:03;11.10;45.40
820;DHT22;392;48.838;2.322;2023-02-11T17:29:30;11.00;45.30
820;DHT22;392;48.838;2.322;2023-02-11T17:31:58;11.10;45.40
820;DHT22;392;48.838;2.322;2023-02-11T17:34:28;11.00;45.40